sensor_id;sensor_type;location;lat;lon;timestamp;pressure;altitude;pressure_sealevel;temperature;humidity
3654;BME280;70277;54.302;10.064;2023-08-21T00:02:10;102012.91;;;19.62;71.94
3654;BME280;70277;54.302;10.064;2023-08-21T00:04:36;102005.50;;;19.67;71.18
3654;BME280;70277;54.302;10.064;2023-08-21T00:07:02;102002.19;;;19.65;70.77
3654;BME280;70277;54.302;10.064;2023-08-21T00:09:29;102003.53;;;19.63;70.22
3654;BME280;70277;54.302;10.064;2023-08-21T00:11:55;102005.50;;;19.52;70.47
3654;BME280;70277;54.302;10.064;2023-08-21T00:14:22;102002.47;;;19.48;70.67
3654;BME280;70277;54.302;10.064;2023-08-21T00:16:48;102010.16;;;19.62;70.31
3654;BME280;70277;54.302;10.064;2023-08-21T00:19:15;102012.91;;;19.51;70.54
3654;BME280;70277;54.302;10.064;2023-08-21T00:21:41;102004.66;;;19.51;70.81
3654;BME280;70277;54.302;10.064;2023-08-21T00:24:08;102002.19;;;19.55;71.12
3654;BME280;70277;54.302;10.064;2023-08-21T00:26:35;101996.19;;;19.43;70.93
3654;BME280;70277;54.302;10.064;2023-08-21T00:29:01;102013.50;;;19.38;70.53
3654;BME280;70277;54.302;10.064;2023-08-21T00:31:28;102009.38;;;19.41;70.62
3654;BME280;70277;54.302;10.064;2023-08-21T00:33:54;102001.69;;;19.27;70.26
3654;BME280;70277;54.302;10.064;2023-08-21T00:36:21;102008.59;;;19.15;70.52
3654;BME280;70277;54.302;10.064;2023-08-21T00:38:47;102004.72;;;19.10;71.02
3654;BME280;70277;54.302;10.064;2023-08-21T00:41:14;102001.19;;;19.00;71.37
3654;BME280;70277;54.302;10.064;2023-08-21T00:43:41;102003.94;;;19.05;70.68
3654;BME280;70277;54.302;10.064;2023-08-21T00:46:07;102005.31;;;19.02;70.50
3654;BME280;70277;54.302;10.064;2023-08-21T00:48:34;102006.69;;;19.00;70.85
3654;BME280;70277;54.302;10.064;2023-08-21T00:51:02;102001.75;;;19.02;70.91
3654;BME280;70277;54.302;10.064;2023-08-21T00:53:29;102003.94;;;19.05;71.25
3654;BME280;70277;54.302;10.064;2023-08-21T00:55:55;102002.81;;;18.96;70.99
3654;BME280;70277;54.302;10.064;2023-08-21T00:58:22;102000.06;;;18.96;70.72
3654;BME280;70277;54.302;10.064;2023-08-21T01:00:49;102009.69;;;18.98;70.52
3654;BME280;70277;54.302;10.064;2023-08-21T01:03:18;102001.19;;;18.79;70.87
3654;BME280;70277;54.302;10.064;2023-08-21T01:05:44;102015.41;;;18.71;70.96
3654;BME280;70277;54.302;10.064;2023-08-21T01:08:15;102012.66;;;18.71;70.96
3654;BME280;70277;54.302;10.064;2023-08-21T01:11:09;102005.81;;;18.69;71.42
3654;BME280;70277;54.302;10.064;2023-08-21T01:14:01;102013.47;;;18.72;71.04
3654;BME280;70277;54.302;10.064;2023-08-21T01:16:30;102015.38;;;18.66;70.14
3654;BME280;70277;54.302;10.064;2023-08-21T01:18:59;102021.66;;;18.41;71.03
3654;BME280;70277;54.302;10.064;2023-08-21T01:21:26;102014.00;;;18.48;70.96
3654;BME280;70277;54.302;10.064;2023-08-21T01:23:53;102014.84;;;18.49;71.08
3654;BME280;70277;54.302;10.064;2023-08-21T01:26:19;102022.81;;;18.55;71.00
3654;BME280;70277;54.302;10.064;2023-08-21T01:28:46;102017.28;;;18.45;71.13
3654;BME280;70277;54.302;10.064;2023-08-21T01:31:20;102024.13;;;18.42;71.35
3654;BME280;70277;54.302;10.064;2023-08-21T01:33:53;102012.09;;;18.54;70.73
3654;BME280;70277;54.302;10.064;2023-08-21T01:36:20;102014.56;;;18.50;70.09
3654;BME280;70277;54.302;10.064;2023-08-21T01:38:47;102010.19;;;18.49;70.40
3654;BME280;70277;54.302;10.064;2023-08-21T01:41:13;102011.81;;;18.50;70.56
3654;BME280;70277;54.302;10.064;2023-08-21T01:43:40;102019.75;;;18.41;70.44
3654;BME280;70277;54.302;10.064;2023-08-21T01:46:07;102018.63;;;18.32;70.14
3654;BME280;70277;54.302;10.064;2023-08-21T01:48:33;102019.13;;;18.14;70.30
3654;BME280;70277;54.302;10.064;2023-08-21T01:51:01;102026.81;;;18.17;70.35
3654;BME280;70277;54.302;10.064;2023-08-21T01:53:28;102020.22;;;18.18;70.40
3654;BME280;70277;54.302;10.064;2023-08-21T01:55:55;102017.22;;;18.19;70.02
3654;BME280;70277;54.302;10.064;2023-08-21T01:58:21;102022.44;;;18.21;70.82
3654;BME280;70277;54.302;10.064;2023-08-21T02:00:48;102026.88;;;18.37;70.94
3654;BME280;70277;54.302;10.064;2023-08-21T02:03:14;102027.41;;;18.45;70.98
3654;BME280;70277;54.302;10.064;2023-08-21T02:05:41;102025.50;;;18.45;70.29
3654;BME280;70277;54.302;10.064;2023-08-21T02:08:12;102027.41;;;18.45;70.38
3654;BME280;70277;54.302;10.064;2023-08-21T02:10:51;102013.75;;;18.65;70.68
3654;BME280;70277;54.302;10.064;2023-08-21T02:13:18;102014.88;;;18.74;70.34
3654;BME280;70277;54.302;10.064;2023-08-21T02:15:45;102016.00;;;18.78;70.06
3654;BME280;70277;54.302;10.064;2023-08-21T02:18:12;102009.97;;;18.76;70.50
3654;BME280;70277;54.302;10.064;2023-08-21T02:20:38;102013.78;;;18.80;70.79
3654;BME280;70277;54.302;10.064;2023-08-21T02:23:05;102009.16;;;18.91;70.61
3654;BME280;70277;54.302;10.064;2023-08-21T02:25:32;102018.75;;;18.94;70.80
3654;BME280;70277;54.302;10.064;2023-08-21T02:27:58;102018.47;;;18.95;70.96
3654;BME280;70277;54.302;10.064;2023-08-21T02:30:25;102014.34;;;19.03;70.69
3654;BME280;70277;54.302;10.064;2023-08-21T02:32:52;102013.25;;;19.14;70.63
3654;BME280;70277;54.302;10.064;2023-08-21T02:35:20;102020.94;;;19.17;70.50
3654;BME280;70277;54.302;10.064;2023-08-21T02:37:46;102029.97;;;19.28;70.13
3654;BME280;70277;54.302;10.064;2023-08-21T02:40:13;102028.59;;;19.30;70.35
3654;BME280;70277;54.302;10.064;2023-08-21T02:42:39;102035.16;;;19.50;69.99
3654;BME280;70277;54.302;10.064;2023-08-21T02:45:06;102026.38;;;19.43;71.47
3654;BME280;70277;54.302;10.064;2023-08-21T02:47:39;102022.84;;;19.32;72.67
3654;BME280;70277;54.302;10.064;2023-08-21T02:50:07;102029.69;;;19.45;72.26
3654;BME280;70277;54.302;10.064;2023-08-21T02:52:35;102035.13;;;19.55;72.37
3654;BME280;70277;54.302;10.064;2023-08-21T02:55:03;102033.47;;;19.74;72.14
3654;BME280;70277;54.302;10.064;2023-08-21T02:57:30;102028.00;;;19.64;72.83
3654;BME280;70277;54.302;10.064;2023-08-21T02:59:57;102030.44;;;19.61;73.51
3654;BME280;70277;54.302;10.064;2023-08-21T03:02:23;102030.47;;;19.66;73.33
3654;BME280;70277;54.302;10.064;2023-08-21T03:04:50;102028.56;;;19.56;74.29
3654;BME280;70277;54.302;10.064;2023-08-21T03:07:17;102023.63;;;19.68;74.03
3654;BME280;70277;54.302;10.064;2023-08-21T03:09:46;102024.44;;;19.69;74.16
3654;BME280;70277;54.302;10.064;2023-08-21T03:12:15;102028.81;;;19.54;74.74
3654;BME280;70277;54.302;10.064;2023-08-21T03:14:41;102032.41;;;19.50;75.19
3654;BME280;70277;54.302;10.064;2023-08-21T03:17:08;102037.34;;;19.43;75.65
3654;BME280;70277;54.302;10.064;2023-08-21T03:19:35;102039.56;;;19.30;76.22
3654;BME280;70277;54.302;10.064;2023-08-21T03:22:01;102034.34;;;19.34;76.56
3654;BME280;70277;54.302;10.064;2023-08-21T03:24:28;102035.75;;;18.91;78.10
3654;BME280;70277;54.302;10.064;2023-08-21T03:26:54;102036.84;;;19.10;77.80
3654;BME280;70277;54.302;10.064;2023-08-21T03:29:21;102036.84;;;19.41;76.75
3654;BME280;70277;54.302;10.064;2023-08-21T03:31:53;102041.22;;;19.47;76.49
3654;BME280;70277;54.302;10.064;2023-08-21T03:34:21;102039.00;;;19.54;76.42
3654;BME280;70277;54.302;10.064;2023-08-21T03:36:47;102046.66;;;19.57;75.82
3654;BME280;70277;54.302;10.064;2023-08-21T03:39:14;102034.63;;;19.22;77.41
3654;BME280;70277;54.302;10.064;2023-08-21T03:41:40;102032.44;;;19.35;77.28
3654;BME280;70277;54.302;10.064;2023-08-21T03:44:07;102033.75;;;19.63;76.24
3654;BME280;70277;54.302;10.064;2023-08-21T03:46:33;102042.47;;;19.90;75.18
3654;BME280;70277;54.302;10.064;2023-08-21T03:49:00;102045.59;;;19.58;75.76
3654;BME280;70277;54.302;10.064;2023-08-21T03:51:26;102046.13;;;19.70;75.75
3654;BME280;70277;54.302;10.064;2023-08-21T03:53:53;102043.91;;;19.72;75.64
3654;BME280;70277;54.302;10.064;2023-08-21T03:56:19;102033.78;;;19.68;75.21
3654;BME280;70277;54.302;10.064;2023-08-21T03:58:46;102038.66;;;19.81;75.13
3654;BME280;70277;54.302;10.064;2023-08-21T04:01:14;102041.91;;;20.04;74.63
3654;BME280;70277;54.302;10.064;2023-08-21T04:03:41;102034.69;;;20.18;73.58
3654;BME280;70277;54.302;10.064;2023-08-21T04:06:07;102034.13;;;20.21;73.77
3654;BME280;70277;54.302;10.064;2023-08-21T04:08:34;102034.16;;;20.16;73.81
3654;BME280;70277;54.302;10.064;2023-08-21T04:11:01;102038.00;;;20.15;73.66
3654;BME280;70277;54.302;10.064;2023-08-21T04:13:28;102035.84;;;20.07;73.55
3654;BME280;70277;54.302;10.064;2023-08-21T04:15:54;102031.50;;;19.90;73.96
3654;BME280;70277;54.302;10.064;2023-08-21T04:18:23;102032.34;;;19.91;74.14
3654;BME280;70277;54.302;10.064;2023-08-21T04:21:07;102040.59;;;19.91;74.23
3654;BME280;70277;54.302;10.064;2023-08-21T04:23:33;102031.88;;;19.53;75.33
3654;BME280;70277;54.302;10.064;2023-08-21T04:26:01;102037.03;;;19.80;74.52
3654;BME280;70277;54.302;10.064;2023-08-21T04:28:30;102034.47;;;20.04;74.03
3654;BME280;70277;54.302;10.064;2023-08-21T04:30:57;102024.94;;;19.86;74.00
3654;BME280;70277;54.302;10.064;2023-08-21T04:33:30;102035.59;;;19.93;74.01
3654;BME280;70277;54.302;10.064;2023-08-21T04:35:57;102039.53;;;19.71;74.14
3654;BME280;70277;54.302;10.064;2023-08-21T04:38:23;102034.28;;;19.80;74.26
3654;BME280;70277;54.302;10.064;2023-08-21T04:40:50;102044.16;;;19.81;74.31
3654;BME280;70277;54.302;10.064;2023-08-21T04:43:17;102040.78;;;20.10;73.72
3654;BME280;70277;54.302;10.064;2023-08-21T04:45:48;102040.63;;;19.60;75.08
3654;BME280;70277;54.302;10.064;2023-08-21T04:48:15;102044.75;;;19.73;74.61
3654;BME280;70277;54.302;10.064;2023-08-21T04:50:42;102029.00;;;19.99;73.49
3654;BME280;70277;54.302;10.064;2023-08-21T04:53:09;102037.84;;;19.91;73.61
3654;BME280;70277;54.302;10.064;2023-08-21T04:55:35;102035.03;;;19.96;73.94
3654;BME280;70277;54.302;10.064;2023-08-21T04:58:03;102027.66;;;19.91;73.77
3654;BME280;70277;54.302;10.064;2023-08-21T05:00:30;102022.09;;;20.12;73.41
3654;BME280;70277;54.302;10.064;2023-08-21T05:02:57;102027.25;;;20.23;72.83
3654;BME280;70277;54.302;10.064;2023-08-21T05:05:23;102024.34;;;19.99;73.57
3654;BME280;70277;54.302;10.064;2023-08-21T05:07:52;102030.59;;;20.10;73.37
3654;BME280;70277;54.302;10.064;2023-08-21T05:10:18;102037.53;;;19.92;74.21
3654;BME280;70277;54.302;10.064;2023-08-21T05:12:45;102032.53;;;20.10;73.78
3654;BME280;70277;54.302;10.064;2023-08-21T05:15:12;102031.16;;;20.02;74.10
3654;BME280;70277;54.302;10.064;2023-08-21T05:17:38;102050.41;;;20.02;73.99
3654;BME280;70277;54.302;10.064;2023-08-21T05:20:06;102030.38;;;19.96;74.22
3654;BME280;70277;54.302;10.064;2023-08-21T05:22:32;102037.44;;;20.18;73.81
3654;BME280;70277;54.302;10.064;2023-08-21T05:24:59;102042.00;;;20.38;72.93
3654;BME280;70277;54.302;10.064;2023-08-21T05:27:25;102044.78;;;20.33;72.86
3654;BME280;70277;54.302;10.064;2023-08-21T05:29:52;102046.34;;;20.54;72.94
3654;BME280;70277;54.302;10.064;2023-08-21T05:32:18;102048.59;;;20.42;72.97
3654;BME280;70277;54.302;10.064;2023-08-21T05:34:45;102050.19;;;20.48;73.29
3654;BME280;70277;54.302;10.064;2023-08-21T05:37:11;102041.59;;;20.10;73.76
3654;BME280;70277;54.302;10.064;2023-08-21T05:39:38;102053.28;;;20.41;73.55
3654;BME280;70277;54.302;10.064;2023-08-21T05:42:04;102047.69;;;20.62;72.70
3654;BME280;70277;54.302;10.064;2023-08-21T05:44:31;102047.44;;;20.48;73.26
3654;BME280;70277;54.302;10.064;2023-08-21T05:46:57;102047.91;;;20.11;74.74
3654;BME280;70277;54.302;10.064;2023-08-21T05:49:24;102050.72;;;19.95;75.54
3654;BME280;70277;54.302;10.064;2023-08-21T05:51:51;102048.88;;;19.55;76.26
3654;BME280;70277;54.302;10.064;2023-08-21T05:54:17;102051.66;;;19.29;76.92
3654;BME280;70277;54.302;10.064;2023-08-21T05:56:44;102047.25;;;19.39;76.55
3654;BME280;70277;54.302;10.064;2023-08-21T05:59:11;102050.53;;;19.51;76.27
3654;BME280;70277;54.302;10.064;2023-08-21T06:01:38;102049.47;;;19.31;76.76
3654;BME280;70277;54.302;10.064;2023-08-21T06:04:05;102052.72;;;19.49;76.17
3654;BME280;70277;54.302;10.064;2023-08-21T06:06:31;102055.50;;;19.33;76.34
3654;BME280;70277;54.302;10.064;2023-08-21T06:08:58;102050.78;;;19.54;76.24
3654;BME280;70277;54.302;10.064;2023-08-21T06:11:24;102065.25;;;20.01;74.78
3654;BME280;70277;54.302;10.064;2023-08-21T06:13:51;102066.75;;;19.22;77.24
3654;BME280;70277;54.302;10.064;2023-08-21T06:16:17;102072.25;;;19.27;76.94
3654;BME280;70277;54.302;10.064;2023-08-21T06:18:44;102080.19;;;19.59;76.34
3654;BME280;70277;54.302;10.064;2023-08-21T06:21:10;102077.94;;;19.92;74.97
3654;BME280;70277;54.302;10.064;2023-08-21T06:23:37;102077.44;;;19.54;76.00
3654;BME280;70277;54.302;10.064;2023-08-21T06:26:03;102076.88;;;19.62;76.64
3654;BME280;70277;54.302;10.064;2023-08-21T06:28:31;102081.81;;;19.81;75.46
3654;BME280;70277;54.302;10.064;2023-08-21T06:30:57;102080.44;;;19.78;75.05
3654;BME280;70277;54.302;10.064;2023-08-21T06:33:29;102086.72;;;19.94;75.38
3654;BME280;70277;54.302;10.064;2023-08-21T06:35:56;102085.00;;;20.13;73.95
3654;BME280;70277;54.302;10.064;2023-08-21T06:38:22;102081.28;;;19.43;76.26
3654;BME280;70277;54.302;10.064;2023-08-21T06:40:49;102088.72;;;19.68;75.56
3654;BME280;70277;54.302;10.064;2023-08-21T06:43:17;102077.94;;;19.92;74.82
3654;BME280;70277;54.302;10.064;2023-08-21T06:45:43;102090.97;;;20.31;73.85
3654;BME280;70277;54.302;10.064;2023-08-21T06:48:10;102099.41;;;20.55;72.75
3654;BME280;70277;54.302;10.064;2023-08-21T06:50:37;102087.84;;;19.88;74.43
3654;BME280;70277;54.302;10.064;2023-08-21T06:53:03;102094.03;;;20.24;73.69
3654;BME280;70277;54.302;10.064;2023-08-21T06:55:30;102093.25;;;20.73;71.84
3654;BME280;70277;54.302;10.064;2023-08-21T06:57:56;102089.25;;;21.29;69.79
3654;BME280;70277;54.302;10.064;2023-08-21T07:00:23;102086.84;;;21.56;69.92
3654;BME280;70277;54.302;10.064;2023-08-21T07:02:49;102091.44;;;21.66;69.38
3654;BME280;70277;54.302;10.064;2023-08-21T07:05:16;102091.75;;;22.13;68.82
3654;BME280;70277;54.302;10.064;2023-08-21T07:07:43;102088.94;;;21.35;69.71
3654;BME280;70277;54.302;10.064;2023-08-21T07:10:10;102092.38;;;21.56;69.38
3654;BME280;70277;54.302;10.064;2023-08-21T07:12:36;102100.28;;;21.63;69.29
3654;BME280;70277;54.302;10.064;2023-08-21T07:15:03;102093.44;;;21.55;69.19
3654;BME280;70277;54.302;10.064;2023-08-21T07:17:30;102095.25;;;22.42;66.62
3654;BME280;70277;54.302;10.064;2023-08-21T07:19:57;102101.16;;;22.55;66.56
3654;BME280;70277;54.302;10.064;2023-08-21T07:22:23;102095.78;;;23.20;64.49
3654;BME280;70277;54.302;10.064;2023-08-21T07:24:49;102103.91;;;22.55;65.83
3654;BME280;70277;54.302;10.064;2023-08-21T07:27:16;102102.50;;;23.47;63.37
3654;BME280;70277;54.302;10.064;2023-08-21T07:29:43;102102.78;;;23.78;62.18
3654;BME280;70277;54.302;10.064;2023-08-21T07:32:09;102101.63;;;22.81;64.33
3654;BME280;70277;54.302;10.064;2023-08-21T07:34:36;102097.59;;;23.90;62.24
3654;BME280;70277;54.302;10.064;2023-08-21T07:37:02;102099.00;;;23.74;61.77
3654;BME280;70277;54.302;10.064;2023-08-21T07:39:29;102099.53;;;23.57;61.92
3654;BME280;70277;54.302;10.064;2023-08-21T07:41:55;102095.94;;;23.89;61.17
3654;BME280;70277;54.302;10.064;2023-08-21T07:44:22;102100.97;;;23.22;62.50
3654;BME280;70277;54.302;10.064;2023-08-21T07:46:48;102103.53;;;23.18;63.32
3654;BME280;70277;54.302;10.064;2023-08-21T07:49:15;102093.69;;;23.45;63.12
3654;BME280;70277;54.302;10.064;2023-08-21T07:51:41;102099.53;;;23.57;62.67
3654;BME280;70277;54.302;10.064;2023-08-21T07:54:08;102101.13;;;24.60;60.05
3654;BME280;70277;54.302;10.064;2023-08-21T07:56:34;102108.44;;;24.78;59.03
3654;BME280;70277;54.302;10.064;2023-08-21T07:59:02;102103.53;;;25.34;57.61
3654;BME280;70277;54.302;10.064;2023-08-21T08:01:29;102111.09;;;24.83;58.50
3654;BME280;70277;54.302;10.064;2023-08-21T08:03:55;102109.44;;;24.46;58.87
3654;BME280;70277;54.302;10.064;2023-08-21T08:06:22;102098.06;;;23.92;58.47
3654;BME280;70277;54.302;10.064;2023-08-21T08:08:50;102109.53;;;24.41;59.08
3654;BME280;70277;54.302;10.064;2023-08-21T08:11:17;102103.19;;;24.40;57.85
3654;BME280;70277;54.302;10.064;2023-08-21T08:13:43;102105.25;;;25.07;58.25
3654;BME280;70277;54.302;10.064;2023-08-21T08:16:10;102105.47;;;25.87;55.03
3654;BME280;70277;54.302;10.064;2023-08-21T08:18:36;102110.59;;;26.77;53.52
3654;BME280;70277;54.302;10.064;2023-08-21T08:21:03;102107.09;;;25.88;54.23
3654;BME280;70277;54.302;10.064;2023-08-21T08:23:30;102103.38;;;25.93;53.98
3654;BME280;70277;54.302;10.064;2023-08-21T08:25:56;102105.84;;;26.03;53.16
3654;BME280;70277;54.302;10.064;2023-08-21T08:28:23;102109.13;;;26.53;52.75
3654;BME280;70277;54.302;10.064;2023-08-21T08:30:50;102108.97;;;26.76;51.62
3654;BME280;70277;54.302;10.064;2023-08-21T08:33:16;102111.94;;;25.06;54.69
3654;BME280;70277;54.302;10.064;2023-08-21T08:35:43;102113.97;;;25.37;55.65
3654;BME280;70277;54.302;10.064;2023-08-21T08:38:10;102108.47;;;25.68;54.88
3654;BME280;70277;54.302;10.064;2023-08-21T08:40:42;102110.09;;;25.38;55.90
3654;BME280;70277;54.302;10.064;2023-08-21T08:43:11;102116.72;;;25.59;54.00
3654;BME280;70277;54.302;10.064;2023-08-21T08:45:37;102107.69;;;25.23;53.70
3654;BME280;70277;54.302;10.064;2023-08-21T08:48:06;102096.72;;;25.71;52.06
3654;BME280;70277;54.302;10.064;2023-08-21T08:50:34;102104.78;;;26.30;52.29
3654;BME280;70277;54.302;10.064;2023-08-21T08:53:01;102102.94;;;26.74;51.64
3654;BME280;70277;54.302;10.064;2023-08-21T08:55:41;102104.84;;;26.65;51.36
3654;BME280;70277;54.302;10.064;2023-08-21T08:58:08;102100.84;;;26.22;52.10
3654;BME280;70277;54.302;10.064;2023-08-21T09:00:34;102108.47;;;26.74;51.64
3654;BME280;70277;54.302;10.064;2023-08-21T09:03:01;102098.81;;;27.32;50.19
3654;BME280;70277;54.302;10.064;2023-08-21T09:05:28;102094.75;;;27.68;48.36
3654;BME280;70277;54.302;10.064;2023-08-21T09:08:23;102097.00;;;26.49;50.66
3654;BME280;70277;54.302;10.064;2023-08-21T09:10:50;102101.34;;;26.24;52.17
3654;BME280;70277;54.302;10.064;2023-08-21T09:13:18;102096.53;;;25.99;52.37
3654;BME280;70277;54.302;10.064;2023-08-21T09:15:47;102091.47;;;25.92;51.52
3654;BME280;70277;54.302;10.064;2023-08-21T09:18:14;102088.63;;;27.92;48.36
3654;BME280;70277;54.302;10.064;2023-08-21T09:20:41;102082.53;;;28.07;48.45
3654;BME280;70277;54.302;10.064;2023-08-21T09:23:13;102086.25;;;27.73;47.89
3654;BME280;70277;54.302;10.064;2023-08-21T09:25:40;102090.19;;;28.40;46.63
3654;BME280;70277;54.302;10.064;2023-08-21T09:28:08;102093.50;;;29.17;44.29
3654;BME280;70277;54.302;10.064;2023-08-21T09:30:44;102092.91;;;29.12;43.23
3654;BME280;70277;54.302;10.064;2023-08-21T09:33:12;102096.47;;;27.52;46.53
3654;BME280;70277;54.302;10.064;2023-08-21T09:35:39;102098.28;;;28.24;46.56
3654;BME280;70277;54.302;10.064;2023-08-21T09:38:08;102091.75;;;28.50;44.03
3654;BME280;70277;54.302;10.064;2023-08-21T09:40:39;102090.81;;;28.46;44.54
3654;BME280;70277;54.302;10.064;2023-08-21T09:43:08;102087.91;;;28.33;45.17
3654;BME280;70277;54.302;10.064;2023-08-21T09:45:35;102086.09;;;28.38;45.86
3654;BME280;70277;54.302;10.064;2023-08-21T09:48:03;102086.66;;;28.94;44.42
3654;BME280;70277;54.302;10.064;2023-08-21T09:50:31;102081.66;;;28.66;44.95
3654;BME280;70277;54.302;10.064;2023-08-21T09:52:58;102079.94;;;28.74;44.59
3654;BME280;70277;54.302;10.064;2023-08-21T09:55:25;102079.63;;;29.54;43.02
3654;BME280;70277;54.302;10.064;2023-08-21T09:58:01;102085.22;;;29.09;45.50
3654;BME280;70277;54.302;10.064;2023-08-21T10:00:30;102078.69;;;29.05;44.35
3654;BME280;70277;54.302;10.064;2023-08-21T10:03:01;102081.81;;;29.82;43.63
3654;BME280;70277;54.302;10.064;2023-08-21T10:05:32;102078.25;;;28.82;44.24
3654;BME280;70277;54.302;10.064;2023-08-21T10:08:03;102077.88;;;28.83;42.89
3654;BME280;70277;54.302;10.064;2023-08-21T10:10:33;102075.75;;;29.80;43.02
3654;BME280;70277;54.302;10.064;2023-08-21T10:13:00;102079.72;;;29.79;41.87
3654;BME280;70277;54.302;10.064;2023-08-21T10:15:31;102077.59;;;29.63;41.59
3654;BME280;70277;54.302;10.064;2023-08-21T10:18:21;102078.53;;;30.41;41.11
3654;BME280;70277;54.302;10.064;2023-08-21T10:20:48;102075.28;;;30.27;39.72
3654;BME280;70277;54.302;10.064;2023-08-21T10:23:26;102075.06;;;30.32;38.82
3654;BME280;70277;54.302;10.064;2023-08-21T10:25:57;102075.72;;;31.10;40.12
3654;BME280;70277;54.302;10.064;2023-08-21T10:31:29;102077.19;;;28.23;44.76
3654;BME280;70277;54.302;10.064;2023-08-21T10:33:57;102070.84;;;28.44;44.22
3654;BME280;70277;54.302;10.064;2023-08-21T10:37:03;102073.41;;;28.91;43.85
3654;BME280;70277;54.302;10.064;2023-08-21T10:39:30;102072.94;;;30.29;41.35
3654;BME280;70277;54.302;10.064;2023-08-21T10:42:10;102073.63;;;30.13;41.05
3654;BME280;70277;54.302;10.064;2023-08-21T10:47:23;102084.94;;;28.09;44.48
3654;BME280;70277;54.302;10.064;2023-08-21T10:50:05;102084.34;;;28.54;44.70
3654;BME280;70277;54.302;10.064;2023-08-21T10:52:35;102081.59;;;27.48;46.22
3654;BME280;70277;54.302;10.064;2023-08-21T10:55:02;102079.19;;;28.65;44.53
3654;BME280;70277;54.302;10.064;2023-08-21T10:57:31;102086.25;;;28.83;42.81
3654;BME280;70277;54.302;10.064;2023-08-21T11:00:06;102084.44;;;29.08;41.00
3654;BME280;70277;54.302;10.064;2023-08-21T11:02:36;102079.22;;;30.01;40.00
3654;BME280;70277;54.302;10.064;2023-08-21T11:05:04;102072.56;;;31.39;37.57
3654;BME280;70277;54.302;10.064;2023-08-21T11:07:43;102074.06;;;30.93;37.28
3654;BME280;70277;54.302;10.064;2023-08-21T11:10:23;102071.13;;;31.77;37.66
3654;BME280;70277;54.302;10.064;2023-08-21T11:12:52;102083.13;;;31.78;36.30
3654;BME280;70277;54.302;10.064;2023-08-21T11:15:19;102081.19;;;30.78;38.12
3654;BME280;70277;54.302;10.064;2023-08-21T11:18:00;102073.94;;;30.49;38.82
3654;BME280;70277;54.302;10.064;2023-08-21T11:20:34;102083.91;;;30.22;39.13
3654;BME280;70277;54.302;10.064;2023-08-21T11:23:03;102095.19;;;29.43;40.86
3654;BME280;70277;54.302;10.064;2023-08-21T11:25:33;102094.00;;;29.89;40.71
3654;BME280;70277;54.302;10.064;2023-08-21T11:28:01;102085.75;;;30.18;38.25
3654;BME280;70277;54.302;10.064;2023-08-21T11:30:30;102083.53;;;30.88;38.44
3654;BME280;70277;54.302;10.064;2023-08-21T11:33:10;102080.06;;;31.51;37.39
3654;BME280;70277;54.302;10.064;2023-08-21T11:35:38;102078.31;;;31.78;35.90
3654;BME280;70277;54.302;10.064;2023-08-21T11:38:05;102087.06;;;32.08;34.80
3654;BME280;70277;54.302;10.064;2023-08-21T11:40:35;102093.88;;;31.91;35.98
3654;BME280;70277;54.302;10.064;2023-08-21T11:43:03;102086.97;;;32.56;35.90
3654;BME280;70277;54.302;10.064;2023-08-21T11:45:30;102090.13;;;31.12;37.35
3654;BME280;70277;54.302;10.064;2023-08-21T11:48:07;102094.44;;;30.93;38.33
3654;BME280;70277;54.302;10.064;2023-08-21T11:50:33;102089.00;;;31.57;35.47
3654;BME280;70277;54.302;10.064;2023-08-21T11:53:02;102087.41;;;30.99;35.87
3654;BME280;70277;54.302;10.064;2023-08-21T11:55:29;102087.75;;;32.56;35.08
3654;BME280;70277;54.302;10.064;2023-08-21T11:57:55;102085.25;;;32.16;35.79
3654;BME280;70277;54.302;10.064;2023-08-21T12:00:28;102072.53;;;32.54;35.36
3654;BME280;70277;54.302;10.064;2023-08-21T12:02:58;102077.88;;;32.62;35.77
3654;BME280;70277;54.302;10.064;2023-08-21T12:05:29;102084.31;;;32.82;35.05
3654;BME280;70277;54.302;10.064;2023-08-21T12:07:55;102082.31;;;32.83;33.89
3654;BME280;70277;54.302;10.064;2023-08-21T12:10:26;102085.28;;;33.52;33.55
3654;BME280;70277;54.302;10.064;2023-08-21T12:12:54;102080.72;;;33.67;31.13
3654;BME280;70277;54.302;10.064;2023-08-21T12:15:21;102078.25;;;33.19;33.22
3654;BME280;70277;54.302;10.064;2023-08-21T12:17:47;102078.03;;;32.50;32.99
3654;BME280;70277;54.302;10.064;2023-08-21T12:20:14;102081.59;;;31.80;32.24
3654;BME280;70277;54.302;10.064;2023-08-21T12:22:41;102082.38;;;33.25;33.81
3654;BME280;70277;54.302;10.064;2023-08-21T12:25:10;102093.34;;;34.03;31.12
3654;BME280;70277;54.302;10.064;2023-08-21T12:27:37;102086.66;;;32.61;33.30
3654;BME280;70277;54.302;10.064;2023-08-21T12:30:05;102081.94;;;33.23;33.63
3654;BME280;70277;54.302;10.064;2023-08-21T12:32:32;102068.03;;;33.77;33.43
3654;BME280;70277;54.302;10.064;2023-08-21T12:34:59;102074.78;;;33.98;30.98
3654;BME280;70277;54.302;10.064;2023-08-21T12:37:25;102080.72;;;34.77;31.93
3654;BME280;70277;54.302;10.064;2023-08-21T12:39:53;102086.97;;;34.06;32.04
3654;BME280;70277;54.302;10.064;2023-08-21T12:42:20;102078.56;;;33.14;32.50
3654;BME280;70277;54.302;10.064;2023-08-21T12:44:46;102078.13;;;31.87;35.03
3654;BME280;70277;54.302;10.064;2023-08-21T12:47:13;102085.09;;;31.45;36.19
3654;BME280;70277;54.302;10.064;2023-08-21T12:49:39;102095.59;;;30.92;35.58
3654;BME280;70277;54.302;10.064;2023-08-21T12:52:05;102085.94;;;30.49;37.37
3654;BME280;70277;54.302;10.064;2023-08-21T12:54:36;102079.00;;;30.06;37.58
3654;BME280;70277;54.302;10.064;2023-08-21T12:57:03;102085.84;;;30.86;38.89
3654;BME280;70277;54.302;10.064;2023-08-21T12:59:29;102073.72;;;31.86;36.30
3654;BME280;70277;54.302;10.064;2023-08-21T13:01:59;102068.34;;;32.48;34.56